sensor_id;sensor_type;location;lat;lon;timestamp;P1;durP1;ratioP1;P2;durP2;ratioP2
77322;SDS011;66384;51.052;9.850;2023-02-02T00:02:12;4.00;;;1.50;;
77322;SDS011;66384;51.052;9.850;2023-02-02T00:04:41;4.50;;;1.80;;
77322;SDS011;66384;51.052;9.850;2023-02-02T00:07:10;4.60;;;1.70;;
77322;SDS011;66384;51.052;9.850;2023-02-02T00:09:40;2.10;;;1.50;;
77322;SDS011;66384;51.052;9.850;2023-02-02T00:12:09;5.70;;;1.40;;
77322;SDS011;66384;51.052;9.850;2023-02-02T00:14:38;2.10;;;1.40;;
77322;SDS011;66384;51.052;9.850;2023-02-02T00:17:08;4.00;;;1.80;;
77322;SDS011;66384;51.052;9.850;2023-02-02T00:19:38;3.80;;;1.60;;
77322;SDS011;66384;51.052;9.850;2023-02-02T00:22:07;4.50;;;1.40;;
77322;SDS011;66384;51.052;9.850;2023-02-02T00:24:36;4.40;;;1.70;;
77322;SDS011;66384;51.052;9.850;2023-02-02T00:27:06;1.60;;;1.20;;
77322;SDS011;66384;51.052;9.850;2023-02-02T00:29:36;4.70;;;1.60;;
77322;SDS011;66384;51.052;9.850;2023-02-02T00:32:06;2.10;;;1.00;;
77322;SDS011;66384;51.052;9.850;2023-02-02T00:34:35;5.20;;;0.90;;
77322;SDS011;66384;51.052;9.850;2023-02-02T00:37:04;3.30;;;1.20;;
77322;SDS011;66384;51.052;9.850;2023-02-02T00:39:33;5.30;;;1.60;;
77322;SDS011;66384;51.052;9.850;2023-02-02T00:42:03;4.10;;;1.50;;
77322;SDS011;66384;51.052;9.850;2023-02-02T00:44:32;7.80;;;1.60;;
77322;SDS011;66384;51.052;9.850;2023-02-02T00:47:19;2.20;;;0.90;;
77322;SDS011;66384;51.052;9.850;2023-02-02T00:49:48;3.50;;;1.50;;
77322;SDS011;66384;51.052;9.850;2023-02-02T00:52:18;4.80;;;1.50;;
77322;SDS011;66384;51.052;9.850;2023-02-02T00:54:47;1.80;;;1.20;;
77322;SDS011;66384;51.052;9.850;2023-02-02T00:57:16;2.80;;;1.10;;
77322;SDS011;66384;51.052;9.850;2023-02-02T00:59:46;2.10;;;1.10;;
77322;SDS011;66384;51.052;9.850;2023-02-02T01:02:15;6.50;;;1.50;;
77322;SDS011;66384;51.052;9.850;2023-02-02T01:04:44;4.00;;;1.40;;
77322;SDS011;66384;51.052;9.850;2023-02-02T01:07:14;3.70;;;1.60;;
77322;SDS011;66384;51.052;9.850;2023-02-02T01:09:43;3.80;;;1.40;;
77322;SDS011;66384;51.052;9.850;2023-02-02T01:12:12;2.80;;;1.10;;
77322;SDS011;66384;51.052;9.850;2023-02-02T01:14:41;4.40;;;1.40;;
77322;SDS011;66384;51.052;9.850;2023-02-02T01:17:11;4.20;;;1.00;;
77322;SDS011;66384;51.052;9.850;2023-02-02T01:19:40;3.70;;;1.10;;
77322;SDS011;66384;51.052;9.850;2023-02-02T01:22:10;4.30;;;1.00;;
77322;SDS011;66384;51.052;9.850;2023-02-02T01:24:39;3.20;;;1.40;;
77322;SDS011;66384;51.052;9.850;2023-02-02T01:27:08;2.40;;;0.80;;
77322;SDS011;66384;51.052;9.850;2023-02-02T01:29:38;3.40;;;1.10;;
77322;SDS011;66384;51.052;9.850;2023-02-02T01:32:07;5.60;;;1.10;;
77322;SDS011;66384;51.052;9.850;2023-02-02T01:34:37;3.10;;;1.20;;
77322;SDS011;66384;51.052;9.850;2023-02-02T01:37:07;5.50;;;1.70;;
77322;SDS011;66384;51.052;9.850;2023-02-02T01:39:37;3.70;;;1.60;;
77322;SDS011;66384;51.052;9.850;2023-02-02T01:42:10;2.50;;;1.20;;
77322;SDS011;66384;51.052;9.850;2023-02-02T01:47:35;5.80;;;1.70;;
77322;SDS011;66384;51.052;9.850;2023-02-02T01:50:08;3.50;;;1.40;;
77322;SDS011;66384;51.052;9.850;2023-02-02T01:52:41;5.60;;;1.70;;
77322;SDS011;66384;51.052;9.850;2023-02-02T01:55:13;6.90;;;2.40;;
77322;SDS011;66384;51.052;9.850;2023-02-02T01:57:46;3.30;;;1.60;;
77322;SDS011;66384;51.052;9.850;2023-02-02T02:00:19;4.90;;;2.20;;
77322;SDS011;66384;51.052;9.850;2023-02-02T02:03:08;9.10;;;2.40;;
77322;SDS011;66384;51.052;9.850;2023-02-02T02:05:40;6.50;;;1.70;;
77322;SDS011;66384;51.052;9.850;2023-02-02T02:08:16;4.60;;;1.80;;
77322;SDS011;66384;51.052;9.850;2023-02-02T02:10:46;5.90;;;1.30;;
77322;SDS011;66384;51.052;9.850;2023-02-02T02:13:16;11.60;;;2.50;;
77322;SDS011;66384;51.052;9.850;2023-02-02T02:16:10;4.00;;;1.10;;
77322;SDS011;66384;51.052;9.850;2023-02-02T02:18:49;9.10;;;1.70;;
77322;SDS011;66384;51.052;9.850;2023-02-02T02:21:37;5.00;;;1.40;;
77322;SDS011;66384;51.052;9.850;2023-02-02T02:24:40;2.50;;;1.10;;
77322;SDS011;66384;51.052;9.850;2023-02-02T02:31:01;7.40;;;1.60;;
77322;SDS011;66384;51.052;9.850;2023-02-02T02:33:52;7.60;;;2.70;;
77322;SDS011;66384;51.052;9.850;2023-02-02T02:36:28;4.60;;;1.70;;
77322;SDS011;66384;51.052;9.850;2023-02-02T02:39:09;4.70;;;1.10;;
77322;SDS011;66384;51.052;9.850;2023-02-02T02:41:44;9.00;;;1.80;;
77322;SDS011;66384;51.052;9.850;2023-02-02T02:44:17;6.60;;;1.70;;
77322;SDS011;66384;51.052;9.850;2023-02-02T02:46:48;7.00;;;1.30;;
77322;SDS011;66384;51.052;9.850;2023-02-02T02:49:18;5.70;;;1.70;;
77322;SDS011;66384;51.052;9.850;2023-02-02T02:51:47;7.50;;;2.10;;
77322;SDS011;66384;51.052;9.850;2023-02-02T02:54:19;8.90;;;2.40;;
77322;SDS011;66384;51.052;9.850;2023-02-02T02:57:00;6.30;;;2.20;;
77322;SDS011;66384;51.052;9.850;2023-02-02T02:59:46;8.80;;;2.20;;
77322;SDS011;66384;51.052;9.850;2023-02-02T03:02:28;6.50;;;1.90;;
77322;SDS011;66384;51.052;9.850;2023-02-02T03:05:13;5.50;;;1.40;;
77322;SDS011;66384;51.052;9.850;2023-02-02T03:07:50;3.50;;;1.30;;
77322;SDS011;66384;51.052;9.850;2023-02-02T03:10:28;6.30;;;1.40;;
77322;SDS011;66384;51.052;9.850;2023-02-02T03:12:59;10.10;;;1.20;;
77322;SDS011;66384;51.052;9.850;2023-02-02T03:15:33;4.20;;;1.00;;
77322;SDS011;66384;51.052;9.850;2023-02-02T03:18:03;4.40;;;1.10;;
77322;SDS011;66384;51.052;9.850;2023-02-02T03:20:33;4.60;;;1.00;;
77322;SDS011;66384;51.052;9.850;2023-02-02T03:23:02;4.40;;;1.30;;
77322;SDS011;66384;51.052;9.850;2023-02-02T03:25:31;2.50;;;0.60;;
77322;SDS011;66384;51.052;9.850;2023-02-02T03:28:01;3.70;;;1.30;;
77322;SDS011;66384;51.052;9.850;2023-02-02T03:30:31;4.70;;;1.30;;
77322;SDS011;66384;51.052;9.850;2023-02-02T03:33:00;2.20;;;0.90;;
77322;SDS011;66384;51.052;9.850;2023-02-02T03:35:31;4.00;;;1.60;;
77322;SDS011;66384;51.052;9.850;2023-02-02T03:38:00;2.80;;;0.90;;
77322;SDS011;66384;51.052;9.850;2023-02-02T03:40:30;2.50;;;1.20;;
77322;SDS011;66384;51.052;9.850;2023-02-02T03:43:00;6.70;;;1.20;;
77322;SDS011;66384;51.052;9.850;2023-02-02T03:45:29;8.30;;;1.30;;
77322;SDS011;66384;51.052;9.850;2023-02-02T03:48:01;4.80;;;1.10;;
77322;SDS011;66384;51.052;9.850;2023-02-02T03:52:59;2.70;;;1.30;;
77322;SDS011;66384;51.052;9.850;2023-02-02T03:55:29;7.70;;;3.80;;
77322;SDS011;66384;51.052;9.850;2023-02-02T03:57:58;4.90;;;1.20;;
77322;SDS011;66384;51.052;9.850;2023-02-02T04:00:27;4.50;;;1.60;;
77322;SDS011;66384;51.052;9.850;2023-02-02T04:02:56;4.70;;;1.90;;
77322;SDS011;66384;51.052;9.850;2023-02-02T04:05:26;3.10;;;1.30;;
77322;SDS011;66384;51.052;9.850;2023-02-02T04:07:55;4.40;;;1.20;;
77322;SDS011;66384;51.052;9.850;2023-02-02T04:10:24;8.50;;;4.20;;
77322;SDS011;66384;51.052;9.850;2023-02-02T04:12:54;7.10;;;1.90;;
77322;SDS011;66384;51.052;9.850;2023-02-02T04:15:23;4.00;;;1.10;;
77322;SDS011;66384;51.052;9.850;2023-02-02T04:17:52;3.20;;;0.80;;
77322;SDS011;66384;51.052;9.850;2023-02-02T04:20:22;4.80;;;1.10;;
77322;SDS011;66384;51.052;9.850;2023-02-02T04:22:52;3.70;;;0.90;;
77322;SDS011;66384;51.052;9.850;2023-02-02T04:25:21;10.00;;;1.40;;
77322;SDS011;66384;51.052;9.850;2023-02-02T04:27:51;6.20;;;1.50;;
77322;SDS011;66384;51.052;9.850;2023-02-02T04:30:20;6.10;;;1.70;;
77322;SDS011;66384;51.052;9.850;2023-02-02T04:32:51;11.50;;;2.00;;
77322;SDS011;66384;51.052;9.850;2023-02-02T04:35:21;4.60;;;1.60;;
77322;SDS011;66384;51.052;9.850;2023-02-02T04:37:50;4.20;;;1.80;;
77322;SDS011;66384;51.052;9.850;2023-02-02T04:40:21;5.00;;;1.50;;
77322;SDS011;66384;51.052;9.850;2023-02-02T04:42:51;6.50;;;1.50;;
77322;SDS011;66384;51.052;9.850;2023-02-02T04:45:20;4.30;;;0.90;;
77322;SDS011;66384;51.052;9.850;2023-02-02T04:47:49;3.90;;;1.20;;
77322;SDS011;66384;51.052;9.850;2023-02-02T04:50:18;3.80;;;1.10;;
77322;SDS011;66384;51.052;9.850;2023-02-02T04:52:48;5.30;;;1.30;;
77322;SDS011;66384;51.052;9.850;2023-02-02T04:55:17;3.80;;;0.90;;
77322;SDS011;66384;51.052;9.850;2023-02-02T04:57:47;3.80;;;0.80;;
77322;SDS011;66384;51.052;9.850;2023-02-02T05:00:16;7.80;;;1.10;;
77322;SDS011;66384;51.052;9.850;2023-02-02T05:02:46;2.20;;;0.70;;
77322;SDS011;66384;51.052;9.850;2023-02-02T05:05:15;3.50;;;0.70;;
77322;SDS011;66384;51.052;9.850;2023-02-02T05:07:45;2.20;;;1.10;;
77322;SDS011;66384;51.052;9.850;2023-02-02T05:10:15;4.20;;;1.00;;
77322;SDS011;66384;51.052;9.850;2023-02-02T05:12:44;7.70;;;2.40;;
77322;SDS011;66384;51.052;9.850;2023-02-02T05:15:14;4.60;;;1.40;;
77322;SDS011;66384;51.052;9.850;2023-02-02T05:17:43;3.50;;;1.00;;
77322;SDS011;66384;51.052;9.850;2023-02-02T05:20:13;2.50;;;1.00;;
77322;SDS011;66384;51.052;9.850;2023-02-02T05:22:43;4.60;;;1.10;;
77322;SDS011;66384;51.052;9.850;2023-02-02T05:25:14;5.10;;;1.60;;
77322;SDS011;66384;51.052;9.850;2023-02-02T05:27:45;4.20;;;1.20;;
77322;SDS011;66384;51.052;9.850;2023-02-02T05:30:15;2.40;;;1.30;;
77322;SDS011;66384;51.052;9.850;2023-02-02T05:32:45;6.80;;;1.60;;
77322;SDS011;66384;51.052;9.850;2023-02-02T05:35:15;7.40;;;1.90;;
77322;SDS011;66384;51.052;9.850;2023-02-02T05:37:44;5.40;;;1.90;;
77322;SDS011;66384;51.052;9.850;2023-02-02T05:40:13;7.60;;;2.20;;
77322;SDS011;66384;51.052;9.850;2023-02-02T05:42:43;5.50;;;2.00;;
77322;SDS011;66384;51.052;9.850;2023-02-02T05:45:15;5.30;;;1.60;;
77322;SDS011;66384;51.052;9.850;2023-02-02T05:47:45;2.00;;;1.40;;
77322;SDS011;66384;51.052;9.850;2023-02-02T05:50:14;2.70;;;1.50;;
77322;SDS011;66384;51.052;9.850;2023-02-02T05:52:44;3.90;;;1.50;;
77322;SDS011;66384;51.052;9.850;2023-02-02T05:55:15;2.00;;;1.20;;
77322;SDS011;66384;51.052;9.850;2023-02-02T05:57:45;5.80;;;1.50;;
77322;SDS011;66384;51.052;9.850;2023-02-02T06:00:15;4.40;;;1.60;;
77322;SDS011;66384;51.052;9.850;2023-02-02T06:02:45;5.80;;;2.00;;
77322;SDS011;66384;51.052;9.850;2023-02-02T06:05:15;3.70;;;1.70;;
77322;SDS011;66384;51.052;9.850;2023-02-02T06:07:44;6.80;;;2.00;;
77322;SDS011;66384;51.052;9.850;2023-02-02T06:10:14;6.70;;;2.00;;
77322;SDS011;66384;51.052;9.850;2023-02-02T06:12:43;4.30;;;1.50;;
77322;SDS011;66384;51.052;9.850;2023-02-02T06:15:13;4.70;;;1.60;;
77322;SDS011;66384;51.052;9.850;2023-02-02T06:17:42;2.40;;;1.50;;
77322;SDS011;66384;51.052;9.850;2023-02-02T06:20:13;2.60;;;1.40;;
77322;SDS011;66384;51.052;9.850;2023-02-02T06:22:42;2.10;;;1.30;;
77322;SDS011;66384;51.052;9.850;2023-02-02T06:25:12;3.00;;;1.00;;
77322;SDS011;66384;51.052;9.850;2023-02-02T06:27:41;4.30;;;1.70;;
77322;SDS011;66384;51.052;9.850;2023-02-02T06:30:12;5.20;;;1.40;;
77322;SDS011;66384;51.052;9.850;2023-02-02T06:35:10;2.10;;;1.10;;
77322;SDS011;66384;51.052;9.850;2023-02-02T06:37:40;6.10;;;1.20;;
77322;SDS011;66384;51.052;9.850;2023-02-02T06:40:10;2.70;;;1.70;;
77322;SDS011;66384;51.052;9.850;2023-02-02T06:42:39;5.30;;;2.40;;
77322;SDS011;66384;51.052;9.850;2023-02-02T06:45:10;7.00;;;2.20;;
77322;SDS011;66384;51.052;9.850;2023-02-02T06:47:40;2.50;;;1.40;;
77322;SDS011;66384;51.052;9.850;2023-02-02T06:50:10;3.10;;;2.00;;
77322;SDS011;66384;51.052;9.850;2023-02-02T06:52:39;3.00;;;1.80;;
77322;SDS011;66384;51.052;9.850;2023-02-02T06:55:15;2.70;;;0.90;;
77322;SDS011;66384;51.052;9.850;2023-02-02T06:57:45;3.30;;;2.00;;
77322;SDS011;66384;51.052;9.850;2023-02-02T07:00:15;2.80;;;1.70;;
77322;SDS011;66384;51.052;9.850;2023-02-02T07:02:45;5.40;;;2.20;;
77322;SDS011;66384;51.052;9.850;2023-02-02T07:05:15;3.80;;;1.60;;
77322;SDS011;66384;51.052;9.850;2023-02-02T07:07:46;4.90;;;1.70;;
77322;SDS011;66384;51.052;9.850;2023-02-02T07:10:17;2.40;;;1.30;;
77322;SDS011;66384;51.052;9.850;2023-02-02T07:12:46;3.30;;;2.00;;
77322;SDS011;66384;51.052;9.850;2023-02-02T07:15:16;3.30;;;1.90;;
77322;SDS011;66384;51.052;9.850;2023-02-02T07:17:45;4.90;;;2.00;;
77322;SDS011;66384;51.052;9.850;2023-02-02T07:20:15;2.60;;;1.90;;
77322;SDS011;66384;51.052;9.850;2023-02-02T07:22:44;13.90;;;7.10;;
77322;SDS011;66384;51.052;9.850;2023-02-02T07:25:14;9.00;;;3.90;;
77322;SDS011;66384;51.052;9.850;2023-02-02T07:27:44;14.10;;;5.30;;
77322;SDS011;66384;51.052;9.850;2023-02-02T07:30:13;4.00;;;2.00;;
77322;SDS011;66384;51.052;9.850;2023-02-02T07:32:46;3.90;;;2.00;;
77322;SDS011;66384;51.052;9.850;2023-02-02T07:35:16;4.90;;;2.40;;
77322;SDS011;66384;51.052;9.850;2023-02-02T07:37:47;5.60;;;2.40;;
77322;SDS011;66384;51.052;9.850;2023-02-02T07:40:20;2.80;;;1.80;;
77322;SDS011;66384;51.052;9.850;2023-02-02T07:42:49;6.50;;;3.40;;
77322;SDS011;66384;51.052;9.850;2023-02-02T07:45:18;6.20;;;2.60;;
77322;SDS011;66384;51.052;9.850;2023-02-02T07:47:47;7.00;;;3.90;;
77322;SDS011;66384;51.052;9.850;2023-02-02T07:50:24;7.20;;;3.10;;
77322;SDS011;66384;51.052;9.850;2023-02-02T07:52:54;3.70;;;2.30;;
77322;SDS011;66384;51.052;9.850;2023-02-02T07:55:24;2.70;;;1.60;;
77322;SDS011;66384;51.052;9.850;2023-02-02T07:57:54;2.80;;;1.10;;
77322;SDS011;66384;51.052;9.850;2023-02-02T08:00:24;2.40;;;1.70;;
77322;SDS011;66384;51.052;9.850;2023-02-02T08:02:54;4.70;;;1.80;;
77322;SDS011;66384;51.052;9.850;2023-02-02T08:05:24;7.00;;;2.70;;
77322;SDS011;66384;51.052;9.850;2023-02-02T08:07:54;15.30;;;5.00;;
77322;SDS011;66384;51.052;9.850;2023-02-02T08:10:23;20.60;;;7.20;;
77322;SDS011;66384;51.052;9.850;2023-02-02T08:12:52;18.70;;;8.60;;
77322;SDS011;66384;51.052;9.850;2023-02-02T08:15:22;14.60;;;7.10;;
77322;SDS011;66384;51.052;9.850;2023-02-02T08:17:51;9.60;;;4.80;;
77322;SDS011;66384;51.052;9.850;2023-02-02T08:20:20;4.90;;;3.00;;
77322;SDS011;66384;51.052;9.850;2023-02-02T08:22:50;3.00;;;1.70;;
77322;SDS011;66384;51.052;9.850;2023-02-02T08:25:19;4.90;;;2.40;;
77322;SDS011;66384;51.052;9.850;2023-02-02T08:27:48;5.20;;;2.70;;
77322;SDS011;66384;51.052;9.850;2023-02-02T08:30:23;5.90;;;3.00;;
77322;SDS011;66384;51.052;9.850;2023-02-02T08:32:53;7.10;;;2.50;;
77322;SDS011;66384;51.052;9.850;2023-02-02T08:35:22;7.30;;;2.70;;
77322;SDS011;66384;51.052;9.850;2023-02-02T08:37:51;8.30;;;2.80;;
77322;SDS011;66384;51.052;9.850;2023-02-02T08:40:20;3.80;;;2.10;;
77322;SDS011;66384;51.052;9.850;2023-02-02T08:42:53;5.80;;;2.20;;
77322;SDS011;66384;51.052;9.850;2023-02-02T08:45:22;4.30;;;2.70;;
77322;SDS011;66384;51.052;9.850;2023-02-02T08:47:51;4.60;;;3.30;;
77322;SDS011;66384;51.052;9.850;2023-02-02T08:50:21;6.40;;;3.30;;
77322;SDS011;66384;51.052;9.850;2023-02-02T08:52:50;6.50;;;3.30;;
77322;SDS011;66384;51.052;9.850;2023-02-02T08:55:20;9.40;;;3.50;;
77322;SDS011;66384;51.052;9.850;2023-02-02T08:57:49;12.20;;;5.20;;
77322;SDS011;66384;51.052;9.850;2023-02-02T09:00:19;9.20;;;3.70;;
77322;SDS011;66384;51.052;9.850;2023-02-02T09:02:50;7.20;;;2.60;;
77322;SDS011;66384;51.052;9.850;2023-02-02T09:05:19;4.70;;;3.20;;
77322;SDS011;66384;51.052;9.850;2023-02-02T09:07:48;4.40;;;2.70;;
77322;SDS011;66384;51.052;9.850;2023-02-02T09:10:18;4.60;;;2.60;;
77322;SDS011;66384;51.052;9.850;2023-02-02T09:12:47;6.00;;;3.50;;
77322;SDS011;66384;51.052;9.850;2023-02-02T09:15:17;5.50;;;2.90;;
77322;SDS011;66384;51.052;9.850;2023-02-02T09:17:46;8.20;;;3.90;;
77322;SDS011;66384;51.052;9.850;2023-02-02T09:20:15;6.90;;;4.20;;
77322;SDS011;66384;51.052;9.850;2023-02-02T09:22:45;5.30;;;3.80;;
77322;SDS011;66384;51.052;9.850;2023-02-02T09:25:14;4.40;;;2.50;;
77322;SDS011;66384;51.052;9.850;2023-02-02T09:27:43;3.80;;;2.30;;
77322;SDS011;66384;51.052;9.850;2023-02-02T09:30:13;2.60;;;2.10;;
77322;SDS011;66384;51.052;9.850;2023-02-02T09:32:42;3.80;;;2.80;;
77322;SDS011;66384;51.052;9.850;2023-02-02T09:35:15;10.80;;;5.80;;
77322;SDS011;66384;51.052;9.850;2023-02-02T09:37:44;14.90;;;5.50;;
77322;SDS011;66384;51.052;9.850;2023-02-02T09:40:15;8.40;;;3.90;;
77322;SDS011;66384;51.052;9.850;2023-02-02T09:42:50;8.40;;;4.20;;
77322;SDS011;66384;51.052;9.850;2023-02-02T09:45:30;6.20;;;3.00;;
77322;SDS011;66384;51.052;9.850;2023-02-02T09:48:07;8.90;;;4.10;;
77322;SDS011;66384;51.052;9.850;2023-02-02T09:50:47;4.60;;;2.70;;
77322;SDS011;66384;51.052;9.850;2023-02-02T09:53:21;5.80;;;3.50;;
77322;SDS011;66384;51.052;9.850;2023-02-02T09:55:59;4.30;;;2.00;;
77322;SDS011;66384;51.052;9.850;2023-02-02T09:58:33;2.70;;;1.90;;
77322;SDS011;66384;51.052;9.850;2023-02-02T10:01:08;4.50;;;1.90;;
77322;SDS011;66384;51.052;9.850;2023-02-02T10:03:41;3.40;;;2.10;;
77322;SDS011;66384;51.052;9.850;2023-02-02T10:06:19;4.70;;;2.90;;
77322;SDS011;66384;51.052;9.850;2023-02-02T10:08:56;15.50;;;8.80;;
77322;SDS011;66384;51.052;9.850;2023-02-02T10:11:38;18.30;;;10.10;;
77322;SDS011;66384;51.052;9.850;2023-02-02T10:14:19;17.60;;;11.40;;
77322;SDS011;66384;51.052;9.850;2023-02-02T10:16:54;8.10;;;7.00;;
77322;SDS011;66384;51.052;9.850;2023-02-02T10:19:28;7.10;;;5.90;;
77322;SDS011;66384;51.052;9.850;2023-02-02T10:22:01;6.10;;;4.80;;
77322;SDS011;66384;51.052;9.850;2023-02-02T10:24:36;3.60;;;2.50;;
77322;SDS011;66384;51.052;9.850;2023-02-02T10:27:07;3.80;;;2.70;;
77322;SDS011;66384;51.052;9.850;2023-02-02T10:29:41;6.70;;;3.60;;
77322;SDS011;66384;51.052;9.850;2023-02-02T10:32:20;6.60;;;3.80;;
77322;SDS011;66384;51.052;9.850;2023-02-02T10:35:04;6.20;;;3.50;;
77322;SDS011;66384;51.052;9.850;2023-02-02T10:37:46;4.40;;;2.90;;
77322;SDS011;66384;51.052;9.850;2023-02-02T10:40:25;4.60;;;3.00;;
77322;SDS011;66384;51.052;9.850;2023-02-02T10:43:14;3.40;;;2.20;;
77322;SDS011;66384;51.052;9.850;2023-02-02T10:46:16;3.20;;;2.70;;
77322;SDS011;66384;51.052;9.850;2023-02-02T10:48:55;2.30;;;1.90;;
77322;SDS011;66384;51.052;9.850;2023-02-02T10:51:37;4.90;;;3.00;;
77322;SDS011;66384;51.052;9.850;2023-02-02T10:54:14;3.10;;;2.10;;
77322;SDS011;66384;51.052;9.850;2023-02-02T10:56:55;3.70;;;2.30;;
77322;SDS011;66384;51.052;9.850;2023-02-02T10:59:30;25.50;;;12.70;;
77322;SDS011;66384;51.052;9.850;2023-02-02T11:02:05;21.40;;;12.80;;
77322;SDS011;66384;51.052;9.850;2023-02-02T11:04:37;16.50;;;10.80;;
77322;SDS011;66384;51.052;9.850;2023-02-02T11:07:25;9.10;;;6.20;;
77322;SDS011;66384;51.052;9.850;2023-02-02T11:09:54;7.30;;;4.00;;
77322;SDS011;66384;51.052;9.850;2023-02-02T11:12:24;5.50;;;3.70;;
77322;SDS011;66384;51.052;9.850;2023-02-02T11:15:01;5.40;;;3.20;;
77322;SDS011;66384;51.052;9.850;2023-02-02T11:17:33;20.40;;;7.20;;
77322;SDS011;66384;51.052;9.850;2023-02-02T11:20:04;17.60;;;6.30;;
77322;SDS011;66384;51.052;9.850;2023-02-02T11:22:59;15.80;;;6.40;;
77322;SDS011;66384;51.052;9.850;2023-02-02T11:25:30;10.40;;;4.80;;
77322;SDS011;66384;51.052;9.850;2023-02-02T11:28:10;8.80;;;5.50;;
77322;SDS011;66384;51.052;9.850;2023-02-02T11:30:46;7.80;;;3.80;;
77322;SDS011;66384;51.052;9.850;2023-02-02T11:33:26;4.60;;;3.00;;
77322;SDS011;66384;51.052;9.850;2023-02-02T11:35:59;4.30;;;2.40;;
77322;SDS011;66384;51.052;9.850;2023-02-02T11:38:30;4.20;;;2.80;;
77322;SDS011;66384;51.052;9.850;2023-02-02T11:41:00;3.30;;;2.10;;
77322;SDS011;66384;51.052;9.850;2023-02-02T11:43:33;5.00;;;2.40;;
77322;SDS011;66384;51.052;9.850;2023-02-02T11:46:14;3.20;;;1.70;;
77322;SDS011;66384;51.052;9.850;2023-02-02T11:48:48;2.90;;;1.60;;
77322;SDS011;66384;51.052;9.850;2023-02-02T11:51:24;4.00;;;2.00;;
77322;SDS011;66384;51.052;9.850;2023-02-02T11:54:00;2.60;;;1.50;;
77322;SDS011;66384;51.052;9.850;2023-02-02T11:59:01;2.00;;;1.30;;
77322;SDS011;66384;51.052;9.850;2023-02-02T12:01:32;7.40;;;3.20;;
77322;SDS011;66384;51.052;9.850;2023-02-02T12:04:20;16.30;;;8.60;;
77322;SDS011;66384;51.052;9.850;2023-02-02T12:06:52;10.90;;;4.90;;
77322;SDS011;66384;51.052;9.850;2023-02-02T12:09:22;14.00;;;7.30;;
77322;SDS011;66384;51.052;9.850;2023-02-02T12:11:55;9.00;;;5.00;;
77322;SDS011;66384;51.052;9.850;2023-02-02T12:14:33;9.40;;;5.10;;
77322;SDS011;66384;51.052;9.850;2023-02-02T12:17:14;11.90;;;7.50;;
77322;SDS011;66384;51.052;9.850;2023-02-02T12:28:29;8.70;;;3.40;;
77322;SDS011;66384;51.052;9.850;2023-02-02T12:31:13;7.30;;;2.50;;
77322;SDS011;66384;51.052;9.850;2023-02-02T12:33:53;6.00;;;3.00;;
77322;SDS011;66384;51.052;9.850;2023-02-02T12:36:37;10.80;;;5.00;;
77322;SDS011;66384;51.052;9.850;2023-02-02T12:39:20;9.30;;;5.80;;
77322;SDS011;66384;51.052;9.850;2023-02-02T12:42:13;7.90;;;5.00;;
77322;SDS011;66384;51.052;9.850;2023-02-02T12:44:53;3.70;;;2.10;;
77322;SDS011;66384;51.052;9.850;2023-02-02T12:47:35;2.80;;;1.90;;
77322;SDS011;66384;51.052;9.850;2023-02-02T12:53:35;2.80;;;1.70;;
77322;SDS011;66384;51.052;9.850;2023-02-02T12:56:14;1.60;;;1.20;;
77322;SDS011;66384;51.052;9.850;2023-02-02T12:58:52;2.00;;;1.40;;
77322;SDS011;66384;51.052;9.850;2023-02-02T13:01:32;1.90;;;1.40;;
77322;SDS011;66384;51.052;9.850;2023-02-02T13:04:22;4.30;;;1.90;;
77322;SDS011;66384;51.052;9.850;2023-02-02T13:10:03;8.20;;;4.20;;
77322;SDS011;66384;51.052;9.850;2023-02-02T13:12:40;3.80;;;2.10;;
77322;SDS011;66384;51.052;9.850;2023-02-02T13:15:15;4.00;;;2.70;;
77322;SDS011;66384;51.052;9.850;2023-02-02T13:17:48;2.80;;;1.90;;
77322;SDS011;66384;51.052;9.850;2023-02-02T13:20:21;1.60;;;1.20;;
77322;SDS011;66384;51.052;9.850;2023-02-02T13:22:55;2.20;;;1.10;;
77322;SDS011;66384;51.052;9.850;2023-02-02T13:25:27;2.10;;;1.50;;
77322;SDS011;66384;51.052;9.850;2023-02-02T13:28:01;2.70;;;1.90;;
77322;SDS011;66384;51.052;9.850;2023-02-02T13:30:34;1.90;;;1.20;;
77322;SDS011;66384;51.052;9.850;2023-02-02T13:33:06;1.20;;;1.10;;
77322;SDS011;66384;51.052;9.850;2023-02-02T13:35:44;1.80;;;0.70;;
77322;SDS011;66384;51.052;9.850;2023-02-02T13:40:49;1.20;;;1.00;;
77322;SDS011;66384;51.052;9.850;2023-02-02T13:43:32;1.40;;;1.10;;
77322;SDS011;66384;51.052;9.850;2023-02-02T13:46:08;2.20;;;1.80;;
77322;SDS011;66384;51.052;9.850;2023-02-02T13:48:49;2.20;;;1.50;;
77322;SDS011;66384;51.052;9.850;2023-02-02T13:51:40;3.40;;;2.40;;
77322;SDS011;66384;51.052;9.850;2023-02-02T13:57:16;2.30;;;1.50;;
77322;SDS011;66384;51.052;9.850;2023-02-02T13:59:56;1.60;;;1.10;;
77322;SDS011;66384;51.052;9.850;2023-02-02T14:02:31;1.60;;;1.10;;
77322;SDS011;66384;51.052;9.850;2023-02-02T14:05:07;1.50;;;1.10;;
77322;SDS011;66384;51.052;9.850;2023-02-02T14:07:54;1.90;;;1.20;;
77322;SDS011;66384;51.052;9.850;2023-02-02T14:13:05;2.70;;;1.50;;
77322;SDS011;66384;51.052;9.850;2023-02-02T14:15:54;3.20;;;1.80;;
77322;SDS011;66384;51.052;9.850;2023-02-02T14:24:42;1.60;;;1.20;;
77322;SDS011;66384;51.052;9.850;2023-02-02T14:30:32;2.20;;;1.60;;
77322;SDS011;66384;51.052;9.850;2023-02-02T14:36:10;4.10;;;1.60;;
77322;SDS011;66384;51.052;9.850;2023-02-02T14:38:53;2.10;;;1.60;;
77322;SDS011;66384;51.052;9.850;2023-02-02T14:41:33;2.40;;;1.70;;
77322;SDS011;66384;51.052;9.850;2023-02-02T14:44:29;2.60;;;1.60;;
77322;SDS011;66384;51.052;9.850;2023-02-02T14:47:03;2.60;;;1.80;;
77322;SDS011;66384;51.052;9.850;2023-02-02T14:49:55;2.00;;;1.50;;
77322;SDS011;66384;51.052;9.850;2023-02-02T14:52:26;1.60;;;1.10;;
77322;SDS011;66384;51.052;9.850;2023-02-02T14:54:55;2.50;;;1.80;;
77322;SDS011;66384;51.052;9.850;2023-02-02T14:57:26;3.60;;;2.10;;
77322;SDS011;66384;51.052;9.850;2023-02-02T14:59:57;2.00;;;1.50;;
77322;SDS011;66384;51.052;9.850;2023-02-02T15:02:30;3.20;;;2.30;;
77322;SDS011;66384;51.052;9.850;2023-02-02T15:08:10;3.00;;;2.10;;
77322;SDS011;66384;51.052;9.850;2023-02-02T15:14:02;3.50;;;1.70;;
77322;SDS011;66384;51.052;9.850;2023-02-02T15:16:36;3.10;;;1.50;;
77322;SDS011;66384;51.052;9.850;2023-02-02T15:19:11;4.70;;;2.00;;
77322;SDS011;66384;51.052;9.850;2023-02-02T15:21:47;5.30;;;1.90;;
77322;SDS011;66384;51.052;9.850;2023-02-02T15:24:19;2.40;;;1.60;;
77322;SDS011;66384;51.052;9.850;2023-02-02T15:26:52;3.00;;;2.00;;
77322;SDS011;66384;51.052;9.850;2023-02-02T15:29:29;2.70;;;1.80;;
77322;SDS011;66384;51.052;9.850;2023-02-02T15:32:08;4.40;;;1.80;;
77322;SDS011;66384;51.052;9.850;2023-02-02T15:34:43;4.60;;;2.90;;
77322;SDS011;66384;51.052;9.850;2023-02-02T15:37:16;3.70;;;2.40;;
77322;SDS011;66384;51.052;9.850;2023-02-02T15:39:47;3.50;;;2.30;;
77322;SDS011;66384;51.052;9.850;2023-02-02T15:42:22;3.10;;;1.70;;
77322;SDS011;66384;51.052;9.850;2023-02-02T15:47:58;4.30;;;3.00;;
77322;SDS011;66384;51.052;9.850;2023-02-02T15:50:31;3.90;;;2.10;;
77322;SDS011;66384;51.052;9.850;2023-02-02T15:53:01;3.90;;;2.50;;
77322;SDS011;66384;51.052;9.850;2023-02-02T15:55:31;3.90;;;2.40;;
77322;SDS011;66384;51.052;9.850;2023-02-02T16:00:31;3.50;;;2.20;;
77322;SDS011;66384;51.052;9.850;2023-02-02T16:03:04;3.60;;;2.30;;
77322;SDS011;66384;51.052;9.850;2023-02-02T16:05:41;7.80;;;3.60;;
77322;SDS011;66384;51.052;9.850;2023-02-02T16:08:15;4.10;;;2.50;;
77322;SDS011;66384;51.052;9.850;2023-02-02T16:10:47;7.00;;;3.60;;
77322;SDS011;66384;51.052;9.850;2023-02-02T16:13:21;6.20;;;3.80;;
77322;SDS011;66384;51.052;9.850;2023-02-02T16:15:56;6.20;;;4.00;;
77322;SDS011;66384;51.052;9.850;2023-02-02T16:18:27;7.90;;;3.90;;
77322;SDS011;66384;51.052;9.850;2023-02-02T16:20:57;5.90;;;3.90;;
77322;SDS011;66384;51.052;9.850;2023-02-02T16:23:32;6.80;;;3.60;;